Time;durP1;ratioP1;P1;durP2;ratioP2;P2;SDS_P1;SDS_P2;PMS_P1;PMS_P2;Temp;Humidity;BMP_temperature;BMP_pressure;BME280_temperature;BME280_humidity;BME280_pressure;Samples;Min_cycle;Max_cycle;Signal;HPM_P1;HPM_P2
2021/10/14 00:01:54;;;;;;;2.53;0.88;;;;;;;25.70;35.50;97601.63;4987401;28;20038;-28
2021/10/14 00:04:19;;;;;;;0.85;0.57;;;;;;;25.70;35.62;97600.75;4986130;28;20034;-33
2021/10/14 00:06:45;;;;;;;1.83;0.90;;;;;;;25.70;35.59;97598.13;4984570;28;20061;-29
2021/10/14 00:09:14;;;;;;;1.05;0.77;;;;;;;25.69;35.49;97594.66;4989136;28;20049;-30
2021/10/14 00:11:39;;;;;;;1.13;0.60;;;;;;;25.69;35.40;97593.78;5007852;28;20463;-31
2021/10/14 00:14:05;;;;;;;1.67;0.93;;;;;;;25.69;35.49;97583.28;4990098;28;20037;-32
2021/10/14 00:16:30;;;;;;;0.40;0.40;;;;;;;25.68;35.52;97586.84;4986879;28;20137;-30
2021/10/14 00:18:56;;;;;;;0.88;0.68;;;;;;;25.69;35.49;97583.28;4986536;28;20391;-34
2021/10/14 00:21:21;;;;;;;0.93;0.70;;;;;;;25.68;35.59;97581.59;4985537;28;20026;-35
2021/10/14 00:23:47;;;;;;;2.75;0.60;;;;;;;25.67;35.48;97590.38;4985589;28;20032;-28
2021/10/14 00:26:12;;;;;;;2.45;0.65;;;;;;;25.68;35.49;97585.09;4988266;28;20037;-33
2021/10/14 00:28:37;;;;;;;1.25;0.57;;;;;;;25.68;35.54;97585.09;4987553;28;20681;-33
2021/10/14 00:31:03;;;;;;;1.17;0.70;;;;;;;25.67;35.46;97585.97;4984598;28;20041;-32
2021/10/14 00:33:28;;;;;;;0.60;0.60;;;;;;;25.68;35.44;97586.84;4987001;28;20052;-30
2021/10/14 00:35:53;;;;;;;2.10;0.88;;;;;;;25.67;35.46;97570.22;4990696;28;20037;-29
2021/10/14 00:38:19;;;;;;;1.52;0.70;;;;;;;25.67;35.48;97585.13;4988693;28;20029;-33
2021/10/14 00:40:45;;;;;;;1.13;0.70;;;;;;;25.69;35.33;97583.28;4988573;28;20029;-33
2021/10/14 00:43:10;;;;;;;1.02;0.68;;;;;;;25.68;35.29;97586.84;4986708;28;20029;-29
2021/10/14 00:45:35;;;;;;;2.97;0.77;;;;;;;25.68;35.37;97592.09;4987511;28;20507;-30
2021/10/14 00:48:01;;;;;;;1.10;0.70;;;;;;;25.68;35.40;97589.47;4986570;28;20045;-28
2021/10/14 00:50:26;;;;;;;1.95;0.85;;;;;;;25.68;35.40;97589.47;4986129;28;20029;-36
2021/10/14 00:52:52;;;;;;;0.77;0.77;;;;;;;25.68;35.41;97589.47;4991019;28;20022;-32
2021/10/14 00:55:17;;;;;;;1.38;0.70;;;;;;;25.68;35.27;97586.84;4989355;28;20057;-30
2021/10/14 00:57:43;;;;;;;1.70;0.68;;;;;;;25.68;35.24;97584.22;4987215;28;20758;-29
2021/10/14 01:00:09;;;;;;;2.53;0.65;;;;;;;25.67;35.21;97579.88;4984871;28;20791;-32
2021/10/14 01:02:34;;;;;;;1.20;0.63;;;;;;;25.67;35.27;97574.63;4988228;28;20030;-33
2021/10/14 01:05:00;;;;;;;1.85;0.75;;;;;;;25.67;35.44;97579.88;4984895;28;20072;-33
2021/10/14 01:07:25;;;;;;;1.67;0.80;;;;;;;25.65;35.18;97579.94;4985387;28;20422;-34
2021/10/14 01:09:51;;;;;;;1.02;0.70;;;;;;;25.65;35.34;97579.09;4986234;28;20563;-31
2021/10/14 01:12:17;;;;;;;1.00;0.60;;;;;;;25.67;35.39;97585.13;4986688;28;20108;-32
2021/10/14 01:14:42;;;;;;;0.80;0.63;;;;;;;25.65;35.18;97582.56;4987369;28;20404;-31
2021/10/14 01:17:08;;;;;;;2.00;0.80;;;;;;;25.67;35.15;97580.72;4985368;28;20030;-30
2021/10/14 01:19:36;;;;;;;2.70;0.75;;;;;;;25.65;35.33;97579.09;4985203;28;20026;-29
2021/10/14 01:22:02;;;;;;;1.88;0.77;;;;;;;25.66;35.27;97583.44;4988828;28;20030;-32
2021/10/14 01:24:27;;;;;;;2.83;0.70;;;;;;;25.65;35.31;97584.34;4987878;28;20032;-33
2021/10/14 01:26:52;;;;;;;1.27;0.70;;;;;;;25.66;35.26;97578.19;4987013;28;20285;-36
2021/10/14 01:29:18;;;;;;;1.95;0.88;;;;;;;25.64;35.26;97580.00;4989264;28;20520;-31
2021/10/14 01:31:43;;;;;;;0.93;0.80;;;;;;;25.65;35.20;97579.09;4989970;28;20045;-32
2021/10/14 01:34:09;;;;;;;2.22;0.60;;;;;;;25.65;35.24;97573.84;4985130;28;20045;-32
2021/10/14 01:36:34;;;;;;;0.80;0.63;;;;;;;25.64;35.28;97569.50;4986013;28;20598;-28
2021/10/14 01:39:00;;;;;;;0.70;0.50;;;;;;;25.64;35.28;97572.13;4986661;28;20140;-31
2021/10/14 01:41:25;;;;;;;0.50;0.50;;;;;;;25.64;35.23;97561.63;4985985;28;20037;-32
2021/10/14 01:43:51;;;;;;;1.33;0.60;;;;;;;25.65;35.15;97555.47;4986429;28;20041;-34
2021/10/14 01:46:16;;;;;;;1.05;0.70;;;;;;;25.63;35.14;97555.50;4981519;28;20026;-29
2021/10/14 01:48:43;;;;;;;1.17;0.77;;;;;;;25.63;35.14;97552.06;4984339;28;20117;-35
2021/10/14 01:51:09;;;;;;;0.50;0.47;;;;;;;25.63;35.06;97550.25;4982621;28;20030;-30
2021/10/14 01:53:34;;;;;;;1.25;0.70;;;;;;;25.63;35.04;97541.56;4987176;28;20033;-30
2021/10/14 01:56:00;;;;;;;4.05;0.70;;;;;;;25.63;35.06;97550.25;4989515;28;20108;-30
2021/10/14 01:58:25;;;;;;;2.05;0.60;;;;;;;25.63;35.19;97547.63;4985427;28;20025;-29
2021/10/14 02:00:51;;;;;;;1.00;0.60;;;;;;;25.64;35.17;97551.13;4981630;28;20698;-29
2021/10/14 02:03:17;;;;;;;0.90;0.68;;;;;;;25.63;35.23;97554.69;4984937;28;20065;-28
2021/10/14 02:05:42;;;;;;;0.90;0.57;;;;;;;25.63;35.23;97558.13;4986202;28;20030;-29
2021/10/14 02:08:08;;;;;;;1.95;0.70;;;;;;;25.62;35.11;97545.94;4985334;28;20038;-29
2021/10/14 02:10:33;;;;;;;0.80;0.50;;;;;;;25.62;35.00;97559.06;4986964;28;20034;-34
2021/10/14 02:12:59;;;;;;;0.77;0.50;;;;;;;25.61;35.04;97554.75;4986083;28;20141;-29
2021/10/14 02:15:24;;;;;;;0.95;0.50;;;;;;;25.62;35.02;97555.59;4986497;28;20508;-34
2021/10/14 02:17:49;;;;;;;1.05;0.50;;;;;;;25.63;35.12;97557.31;4986971;28;20424;-33
2021/10/14 02:20:15;;;;;;;2.88;0.70;;;;;;;25.62;35.06;97558.22;4991634;28;20122;-33
2021/10/14 02:22:40;;;;;;;1.52;0.70;;;;;;;25.61;34.89;97549.50;4987810;28;20045;-28
2021/10/14 02:25:07;;;;;;;1.45;0.50;;;;;;;25.61;35.03;97552.13;4989201;28;21324;-33
2021/10/14 02:27:33;;;;;;;0.68;0.60;;;;;;;25.62;35.19;97545.09;4990073;28;20057;-36
2021/10/14 02:29:58;;;;;;;1.10;0.70;;;;;;;25.60;35.16;97553.03;4990524;28;20089;-33
2021/10/14 02:32:23;;;;;;;0.77;0.50;;;;;;;25.61;34.97;97543.38;4988654;28;20077;-35
2021/10/14 02:34:49;;;;;;;0.50;0.47;;;;;;;25.60;35.04;97545.16;4983399;28;20034;-33
2021/10/14 02:37:14;;;;;;;1.08;0.60;;;;;;;25.57;35.14;97537.41;4990495;28;20034;-32
2021/10/14 02:39:40;;;;;;;1.00;0.63;;;;;;;25.60;35.12;97541.66;4991008;28;20060;-31
2021/10/14 02:42:05;;;;;;;1.33;0.70;;;;;;;25.60;35.00;97546.91;4989188;28;20031;-35
2021/10/14 02:44:30;;;;;;;0.50;0.50;;;;;;;25.60;35.15;97550.41;4986456;28;20467;-27
2021/10/14 02:46:56;;;;;;;0.93;0.68;;;;;;;25.60;35.17;97546.91;4984146;28;20109;-32
2021/10/14 02:49:21;;;;;;;2.00;0.50;;;;;;;25.60;35.06;97544.28;4991422;28;20034;-34
2021/10/14 02:51:47;;;;;;;0.93;0.68;;;;;;;25.59;35.10;97551.31;4987244;28;20033;-29
2021/10/14 02:54:12;;;;;;;1.30;0.80;;;;;;;25.58;35.12;97552.22;4989077;28;20736;-37
2021/10/14 02:56:37;;;;;;;0.98;0.60;;;;;;;25.58;34.99;97549.59;4987505;28;20108;-31
2021/10/14 02:59:03;;;;;;;0.57;0.50;;;;;;;25.58;35.13;97549.59;4989338;28;20048;-28
2021/10/14 03:01:28;;;;;;;0.45;0.45;;;;;;;25.57;34.92;97553.16;4988448;28;20401;-32
2021/10/14 03:03:54;;;;;;;0.60;0.50;;;;;;;25.58;34.96;97554.84;5003289;28;20370;-31
2021/10/14 03:06:19;;;;;;;0.50;0.40;;;;;;;25.57;34.97;97550.53;5003438;28;20027;-31
2021/10/14 03:08:44;;;;;;;1.48;0.60;;;;;;;25.57;34.87;97559.25;4989582;28;20037;-30
2021/10/14 03:11:10;;;;;;;0.43;0.40;;;;;;;25.57;34.96;97563.66;4988273;28;20034;-29
2021/10/14 03:13:35;;;;;;;0.68;0.38;;;;;;;25.56;34.95;97562.78;4986262;28;22085;-31
2021/10/14 03:16:04;;;;;;;0.98;0.60;;;;;;;25.57;35.04;97568.91;4988864;28;20092;-30
2021/10/14 03:18:30;;;;;;;3.65;0.90;;;;;;;25.56;34.44;97557.53;4987197;28;20033;-31
2021/10/14 03:20:55;;;;;;;1.25;0.68;;;;;;;25.55;34.27;97565.47;4987090;28;20113;-29
2021/10/14 03:23:21;;;;;;;5.28;0.70;;;;;;;25.53;34.52;97568.16;4986913;28;20021;-32
2021/10/14 03:25:46;;;;;;;0.50;0.50;;;;;;;25.53;34.56;97559.41;4990129;28;20022;-35
2021/10/14 03:28:11;;;;;;;1.80;0.60;;;;;;;25.52;34.70;97563.78;4987248;28;20038;-33
2021/10/14 03:30:37;;;;;;;1.40;0.60;;;;;;;25.53;34.83;97567.28;4985495;28;20084;-32
2021/10/14 03:33:02;;;;;;;0.88;0.70;;;;;;;25.52;34.92;97566.41;4985821;28;20896;-29
2021/10/14 03:35:28;;;;;;;0.77;0.57;;;;;;;25.52;34.85;97561.16;4990171;28;20037;-33
2021/10/14 03:37:53;;;;;;;3.05;0.80;;;;;;;25.52;34.77;97561.16;4988039;28;20032;-27
2021/10/14 03:40:18;;;;;;;1.02;0.60;;;;;;;25.52;34.78;97565.56;4989730;28;20092;-31
2021/10/14 03:42:44;;;;;;;1.13;0.60;;;;;;;25.50;34.73;97563.00;4986040;28;20033;-31
2021/10/14 03:45:09;;;;;;;2.63;0.57;;;;;;;25.52;35.00;97566.41;4989640;28;20022;-29
2021/10/14 03:47:34;;;;;;;0.82;0.60;;;;;;;25.51;34.90;97559.47;4987428;28;20030;-29
2021/10/14 03:50:00;;;;;;;0.85;0.60;;;;;;;25.51;34.76;97564.72;4990403;28;20093;-27
2021/10/14 03:52:25;;;;;;;0.80;0.52;;;;;;;25.52;34.96;97555.06;4986492;28;20528;-30
2021/10/14 03:54:51;;;;;;;0.82;0.60;;;;;;;25.51;34.95;97553.38;4985846;28;20030;-32
2021/10/14 03:57:16;;;;;;;1.27;0.60;;;;;;;25.51;34.85;97559.47;4984159;28;20025;-30
2021/10/14 03:59:41;;;;;;;0.70;0.63;;;;;;;25.51;34.82;97556.00;4987652;28;20034;-33
2021/10/14 04:02:07;;;;;;;0.38;0.38;;;;;;;25.51;34.81;97564.72;4983607;28;20135;-30
2021/10/14 04:04:32;;;;;;;1.48;0.65;;;;;;;25.51;34.95;97574.38;4987179;28;20034;-33
2021/10/14 04:06:57;;;;;;;0.45;0.45;;;;;;;25.51;34.78;97569.94;4983270;28;20025;-32
2021/10/14 04:09:23;;;;;;;1.45;0.50;;;;;;;25.51;34.78;97563.88;4983451;28;20029;-32
2021/10/14 04:11:48;;;;;;;0.73;0.65;;;;;;;25.50;34.88;97573.50;4987756;28;20106;-29
2021/10/14 04:14:14;;;;;;;1.10;0.70;;;;;;;25.51;34.85;97577.00;4984996;28;20062;-33
2021/10/14 04:16:39;;;;;;;1.85;0.68;;;;;;;25.50;34.97;97578.75;4981980;28;20397;-30
2021/10/14 04:19:04;;;;;;;0.98;0.50;;;;;;;25.49;34.84;97579.66;4990090;28;20034;-27
2021/10/14 04:21:30;;;;;;;0.50;0.50;;;;;;;25.50;34.84;97584.00;4987457;28;20030;-29
2021/10/14 04:23:56;;;;;;;0.88;0.30;;;;;;;25.50;34.98;97588.38;4986338;28;20041;-30
2021/10/14 04:26:22;;;;;;;0.93;0.40;;;;;;;25.49;34.99;97592.78;4985045;28;20081;-29
2021/10/14 04:28:47;;;;;;;0.60;0.50;;;;;;;25.50;34.89;97591.00;4987490;28;20472;-32
2021/10/14 04:31:13;;;;;;;2.15;0.50;;;;;;;25.48;34.96;97596.34;4988488;28;20045;-31
2021/10/14 04:33:39;;;;;;;0.73;0.50;;;;;;;25.47;34.93;97589.34;4985604;28;20111;-32
2021/10/14 04:36:04;;;;;;;0.73;0.55;;;;;;;25.48;34.84;97583.22;4986049;28;20038;-32
2021/10/14 04:38:30;;;;;;;0.77;0.60;;;;;;;25.48;34.84;97588.47;4989596;28;20041;-31
2021/10/14 04:40:55;;;;;;;0.50;0.50;;;;;;;25.47;34.79;97594.59;4988021;28;20030;-31
2021/10/14 04:43:22;;;;;;;2.92;0.50;;;;;;;25.48;34.84;97590.22;4987124;28;20034;-28
2021/10/14 04:45:49;;;;;;;1.20;0.63;;;;;;;25.48;34.99;97587.59;4983411;28;20633;-28
2021/10/14 04:48:15;;;;;;;0.68;0.47;;;;;;;25.48;34.84;97593.72;4985516;28;20037;-34
2021/10/14 04:50:40;;;;;;;0.55;0.40;;;;;;;25.47;34.95;97584.09;4986534;28;20081;-28
2021/10/14 04:53:06;;;;;;;0.90;0.40;;;;;;;25.47;34.89;97594.59;4989652;28;20476;-32
2021/10/14 04:55:31;;;;;;;1.25;0.55;;;;;;;25.47;34.75;97594.59;4982389;28;20056;-29
2021/10/14 04:57:58;;;;;;;0.40;0.40;;;;;;;25.47;34.78;97594.59;4981606;28;20064;-29
2021/10/14 05:00:23;;;;;;;0.43;0.40;;;;;;;25.46;34.99;97592.91;4977344;28;20025;-33
2021/10/14 05:02:49;;;;;;;1.15;0.55;;;;;;;25.47;34.95;97589.34;4981352;28;20095;-28
2021/10/14 05:05:14;;;;;;;0.32;0.32;;;;;;;25.48;34.92;97590.22;4979829;28;20513;-32
2021/10/14 05:07:40;;;;;;;1.05;0.60;;;;;;;25.45;35.00;97580.72;4980326;28;20448;-29
2021/10/14 05:10:05;;;;;;;0.65;0.40;;;;;;;25.46;34.86;97585.03;4979703;28;20057;-33
2021/10/14 05:12:31;;;;;;;0.63;0.57;;;;;;;25.45;34.78;97580.72;4979579;28;20056;-30
2021/10/14 05:14:56;;;;;;;2.20;0.55;;;;;;;25.45;34.86;97580.72;4981901;28;20041;-31
2021/10/14 05:17:22;;;;;;;0.40;0.40;;;;;;;25.45;34.96;97584.16;4981896;28;20030;-30
2021/10/14 05:19:47;;;;;;;0.57;0.47;;;;;;;25.45;34.81;97583.34;4979146;28;20026;-33
2021/10/14 05:22:13;;;;;;;0.38;0.30;;;;;;;25.44;34.91;97576.38;4981542;28;20812;-33
2021/10/14 05:24:38;;;;;;;0.40;0.40;;;;;;;25.44;34.81;97573.75;4986385;28;20665;-30
2021/10/14 05:27:03;;;;;;;0.82;0.60;;;;;;;25.44;34.83;97577.22;4984619;28;20045;-32
2021/10/14 05:29:29;;;;;;;1.65;0.50;;;;;;;25.43;35.01;97577.28;4988379;28;20034;-30
2021/10/14 05:31:54;;;;;;;0.80;0.40;;;;;;;25.45;34.94;97578.09;4980327;28;20030;-33
2021/10/14 05:34:20;;;;;;;0.40;0.40;;;;;;;25.44;34.87;97579.00;4988070;28;20038;-29
2021/10/14 05:36:45;;;;;;;0.82;0.60;;;;;;;25.44;34.99;97579.00;4984542;28;20488;-28
2021/10/14 05:39:10;;;;;;;1.73;0.60;;;;;;;25.43;34.83;97572.03;4983658;28;20725;-29
2021/10/14 05:41:36;;;;;;;0.60;0.40;;;;;;;25.42;34.99;97576.44;4988751;28;20029;-34
2021/10/14 05:44:01;;;;;;;0.63;0.50;;;;;;;25.42;34.78;97578.19;4985653;28;20037;-33
2021/10/14 05:46:26;;;;;;;0.95;0.50;;;;;;;25.42;34.88;97576.44;4985293;28;20026;-30
2021/10/14 05:48:52;;;;;;;0.50;0.40;;;;;;;25.43;34.87;97572.03;4984037;28;20030;-30
2021/10/14 05:51:17;;;;;;;0.77;0.50;;;;;;;25.41;35.01;97579.13;4986743;28;20055;-31
2021/10/14 05:53:43;;;;;;;0.98;0.32;;;;;;;25.42;34.82;97575.56;4986438;28;20432;-30
2021/10/14 05:56:08;;;;;;;0.20;0.20;;;;;;;25.42;34.91;97578.19;4985995;28;20030;-31
2021/10/14 05:58:34;;;;;;;0.80;0.50;;;;;;;25.42;34.89;97575.56;4984327;28;20041;-30
2021/10/14 06:00:59;;;;;;;1.02;0.40;;;;;;;25.42;35.01;97575.56;4984913;28;20656;-33
2021/10/14 06:03:25;;;;;;;0.95;0.60;;;;;;;25.41;34.94;97585.22;4984829;28;20492;-31
2021/10/14 06:05:50;;;;;;;1.15;0.50;;;;;;;25.41;34.98;97582.59;4985590;28;20030;-32
2021/10/14 06:08:16;;;;;;;1.08;0.50;;;;;;;25.41;34.90;97573.88;4985193;28;20034;-31
2021/10/14 06:10:41;;;;;;;0.45;0.40;;;;;;;25.40;34.90;97577.41;4983077;28;20040;-31
2021/10/14 06:13:06;;;;;;;0.95;0.70;;;;;;;25.40;35.02;97575.63;4982909;28;20034;-28
2021/10/14 06:15:33;;;;;;;0.43;0.40;;;;;;;25.41;35.03;97579.13;4986014;28;20500;-33
2021/10/14 06:17:58;;;;;;;1.15;0.57;;;;;;;25.41;34.79;97577.34;4986950;28;20029;-30
2021/10/14 06:20:23;;;;;;;0.50;0.47;;;;;;;25.40;34.97;97575.63;4985254;28;20084;-32
2021/10/14 06:22:49;;;;;;;0.63;0.43;;;;;;;25.41;34.81;97573.88;4986609;28;20040;-29
2021/10/14 06:25:14;;;;;;;0.65;0.50;;;;;;;25.41;34.77;97572.09;4986964;28;20030;-30
2021/10/14 06:27:39;;;;;;;0.50;0.35;;;;;;;25.40;34.90;97573.00;4986402;28;20057;-32
2021/10/14 06:30:05;;;;;;;9.55;1.05;;;;;;;25.41;34.78;97568.63;4984749;28;20449;-28
2021/10/14 06:32:31;;;;;;;9.18;0.80;;;;;;;25.40;34.38;97577.41;4979565;28;20044;-26
2021/10/14 06:34:56;;;;;;;5.80;0.95;;;;;;;25.38;34.53;97573.97;4980677;28;20048;-33
2021/10/14 06:37:21;;;;;;;6.60;1.80;;;;;;;25.38;34.20;97579.22;4984845;28;20069;-29
2021/10/14 06:39:47;;;;;;;4.80;1.60;;;;;;;25.36;33.97;97575.81;4983789;28;20048;-30
2021/10/14 06:42:12;;;;;;;12.68;2.13;;;;;;;25.34;33.84;97578.50;4986193;28;20045;-28
2021/10/14 06:44:38;;;;;;;7.10;2.72;;;;;;;25.31;32.75;97573.38;4988554;28;20502;-33
2021/10/14 06:47:03;;;;;;;12.55;2.70;;;;;;;25.28;31.67;97569.09;4986462;28;20039;-28
2021/10/14 06:49:28;;;;;;;12.35;2.67;;;;;;;25.26;31.65;97581.44;4993106;28;20026;-30
2021/10/14 06:51:55;;;;;;;8.32;2.85;;;;;;;25.24;31.53;97578.00;4975400;28;20046;-31
2021/10/14 06:54:21;;;;;;;8.05;2.42;;;;;;;25.22;31.27;97579.84;4987058;28;20041;-31
2021/10/14 06:56:46;;;;;;;15.60;2.90;;;;;;;25.20;31.03;97571.16;4985820;28;20113;-30
2021/10/14 06:59:12;;;;;;;9.95;2.80;;;;;;;25.18;31.11;97573.81;4987347;28;20045;-30
2021/10/14 07:01:37;;;;;;;5.60;2.47;;;;;;;25.18;31.21;97565.13;4987562;28;20030;-28
2021/10/14 07:04:03;;;;;;;5.78;2.70;;;;;;;25.16;31.10;97564.31;4984963;28;20489;-30
2021/10/14 07:06:28;;;;;;;6.75;2.30;;;;;;;25.15;31.16;97573.09;4987251;28;20148;-29
2021/10/14 07:08:53;;;;;;;8.38;2.83;;;;;;;25.13;30.98;97573.16;4990234;28;20068;-28
2021/10/14 07:11:20;;;;;;;10.15;2.42;;;;;;;25.14;30.99;97576.63;4988247;28;20080;-34
2021/10/14 07:13:46;;;;;;;7.18;2.78;;;;;;;25.12;31.13;97573.22;4988342;28;20088;-26
2021/10/14 07:16:11;;;;;;;7.35;3.03;;;;;;;25.12;31.14;97583.69;4990476;28;20303;-32
2021/10/14 07:18:37;;;;;;;6.43;2.50;;;;;;;25.11;32.14;97582.88;4989475;28;20065;-30
2021/10/14 07:21:02;;;;;;;6.50;2.30;;;;;;;25.12;32.87;97586.31;4986964;28;20086;-31
2021/10/14 07:23:29;;;;;;;8.23;2.72;;;;;;;25.14;33.17;97587.13;4986672;28;20034;-33
2021/10/14 07:25:54;;;;;;;7.60;2.80;;;;;;;25.15;33.31;97594.09;4982612;28;20049;-31
2021/10/14 07:28:19;;;;;;;4.32;2.20;;;;;;;25.17;33.63;97592.28;4990408;28;20113;-32
2021/10/14 07:30:45;;;;;;;10.32;2.75;;;;;;;25.20;33.84;97596.53;4986874;28;20030;-31
2021/10/14 07:33:10;;;;;;;5.75;2.17;;;;;;;25.21;33.90;97601.75;4990460;28;20102;-30
2021/10/14 07:35:37;;;;;;;5.95;2.67;;;;;;;25.22;34.12;97606.06;4988260;28;20080;-29
2021/10/14 07:38:03;;;;;;;14.02;2.80;;;;;;;25.22;34.03;97600.81;4990627;28;20069;-29
2021/10/14 07:40:28;;;;;;;4.65;2.17;;;;;;;25.26;34.15;97610.28;4985207;28;20717;-26
2021/10/14 07:42:54;;;;;;;4.45;2.10;;;;;;;25.27;34.35;97609.38;4986397;28;20041;-32
2021/10/14 07:45:19;;;;;;;5.72;2.42;;;;;;;25.28;34.27;97608.44;4986843;28;20022;-30
2021/10/14 07:47:45;;;;;;;6.45;2.20;;;;;;;25.30;34.28;97614.50;4988686;28;20568;-33
2021/10/14 07:50:12;;;;;;;6.18;2.53;;;;;;;25.34;34.22;97614.38;4986777;28;20033;-30
2021/10/14 07:52:37;;;;;;;7.65;2.10;;;;;;;25.34;34.23;97604.72;4987017;28;20113;-36
2021/10/14 07:55:03;;;;;;;32.50;3.10;;;;;;;25.36;33.93;97607.31;4986870;28;20045;-31
2021/10/14 07:57:28;;;;;;;36.25;3.25;;;;;;;25.36;33.86;97607.31;4988007;28;20113;-36
2021/10/14 07:59:54;;;;;;;24.33;2.78;;;;;;;25.38;33.91;97608.09;4988606;28;20085;-33
2021/10/14 08:02:19;;;;;;;19.83;2.47;;;;;;;25.38;33.97;97616.81;4990148;28;20517;-28
2021/10/14 08:04:45;;;;;;;8.00;2.38;;;;;;;25.39;34.24;97613.28;4987149;28;20088;-35
2021/10/14 08:07:11;;;;;;;10.80;2.63;;;;;;;25.40;34.35;97620.22;4989254;28;20034;-31
2021/10/14 08:09:36;;;;;;;18.27;2.70;;;;;;;25.44;34.54;97618.38;4988802;28;20029;-29
2021/10/14 08:12:02;;;;;;;13.48;3.00;;;;;;;25.46;34.48;97613.91;4986620;28;20096;-32
2021/10/14 08:14:27;;;;;;;12.57;2.80;;;;;;;25.43;31.85;97603.50;4977667;28;20185;-29
2021/10/14 08:16:52;;;;;;;7.40;2.50;;;;;;;25.27;27.06;97603.25;4982567;28;20049;-29
2021/10/14 08:19:18;;;;;;;4.95;2.30;;;;;;;25.12;26.12;97607.31;4984082;28;20434;-27
2021/10/14 08:21:43;;;;;;;6.72;3.10;;;;;;;24.89;25.56;97609.00;4985346;28;20034;-30
2021/10/14 08:24:09;;;;;;;8.57;3.90;;;;;;;24.67;26.65;97609.75;4982879;28;20585;-29
2021/10/14 08:26:34;;;;;;;10.35;4.03;;;;;;;24.53;27.31;97621.56;4986107;28;20025;-32
2021/10/14 08:29:00;;;;;;;17.88;4.38;;;;;;;24.45;28.24;97607.03;4997504;28;20030;-30
2021/10/14 08:31:25;;;;;;;23.55;5.40;;;;;;;24.42;28.97;97609.75;4980719;28;20030;-31
2021/10/14 08:33:51;;;;;;;16.85;4.93;;;;;;;24.40;29.48;97605.44;4983169;28;20532;-30
2021/10/14 08:36:17;;;;;;;14.45;4.65;;;;;;;24.42;29.80;97602.75;4979855;28;20048;-27
2021/10/14 08:38:43;;;;;;;16.58;4.57;;;;;;;24.46;30.21;97607.00;4980991;28;20896;-26
2021/10/14 08:41:08;;;;;;;13.10;4.20;;;;;;;24.46;30.65;97591.28;4986717;28;20042;-30
2021/10/14 08:43:34;;;;;;;19.83;5.07;;;;;;;24.55;30.90;97599.72;4983305;28;20107;-29
2021/10/14 08:45:59;;;;;;;21.58;4.43;;;;;;;24.60;30.95;97597.78;4983434;28;20058;-32
2021/10/14 08:48:25;;;;;;;16.02;4.55;;;;;;;24.66;31.31;97598.44;4979834;28;20029;-28
2021/10/14 08:50:50;;;;;;;14.30;4.45;;;;;;;24.70;31.42;97588.69;4980211;28;20033;-29
2021/10/14 08:53:16;;;;;;;14.63;4.07;;;;;;;24.76;31.33;97592.84;4985015;28;20060;-28
2021/10/14 08:55:41;;;;;;;14.75;4.75;;;;;;;24.80;31.58;97599.69;4986860;28;20022;-30
2021/10/14 08:58:11;;;;;;;17.80;5.10;;;;;;;24.86;31.65;97588.16;4986282;28;20296;-31
2021/10/14 09:00:37;;;;;;;14.13;5.07;;;;;;;24.91;31.62;97594.09;4985502;28;20455;-33
2021/10/14 09:03:26;;;;;;;17.40;5.13;;;;;;;24.95;31.72;97593.06;4989525;28;20041;-28
2021/10/14 09:05:51;;;;;;;16.52;5.05;;;;;;;25.00;31.78;97592.88;4987827;28;20021;-32
2021/10/14 09:08:35;;;;;;;13.73;4.93;;;;;;;25.04;32.07;97592.72;4988231;28;20026;-30
2021/10/14 09:11:17;;;;;;;12.02;4.30;;;;;;;25.09;32.17;97586.47;4985424;28;20058;-29
2021/10/14 09:13:52;;;;;;;11.60;4.13;;;;;;;25.13;32.23;97593.31;4987935;28;20034;-27
2021/10/14 09:16:39;;;;;;;13.90;4.30;;;;;;;25.16;32.22;97587.91;4989005;28;20187;-33
2021/10/14 09:19:16;;;;;;;13.65;4.15;;;;;;;25.20;32.22;97581.63;4987971;28;20069;-32
2021/10/14 09:21:44;;;;;;;12.48;3.97;;;;;;;25.24;32.13;97582.41;4985715;28;20026;-29
2021/10/14 09:24:29;;;;;;;12.13;4.45;;;;;;;25.26;32.31;97570.94;5009499;28;20626;-27
2021/10/14 09:26:54;;;;;;;13.55;4.38;;;;;;;25.30;32.46;97582.16;4981850;28;20559;-29
2021/10/14 09:29:21;;;;;;;10.90;3.95;;;;;;;25.34;32.33;97577.63;4986340;28;20025;-30
2021/10/14 09:31:51;;;;;;;10.23;3.83;;;;;;;25.36;32.41;97581.06;4989162;28;20647;-27
2021/10/14 09:34:31;;;;;;;12.07;4.65;;;;;;;25.39;32.65;97578.31;4989636;28;20559;-28
2021/10/14 09:36:57;;;;;;;10.88;4.03;;;;;;;25.42;32.69;97571.19;4987662;28;20846;-30
2021/10/14 09:39:23;;;;;;;9.43;3.75;;;;;;;25.45;32.49;97570.22;4986564;28;20359;-28
2021/10/14 09:41:48;;;;;;;10.00;3.80;;;;;;;25.47;32.62;97573.63;4987046;28;20037;-27
2021/10/14 09:44:20;;;;;;;11.95;3.83;;;;;;;25.49;32.41;97569.19;4987141;28;20088;-31
2021/10/14 09:46:45;;;;;;;;;;;;;;;25.53;32.61;97562.03;4988026;28;20030;-31
2021/10/14 09:49:13;;;;;;;8.57;3.15;;;;;;;25.55;32.63;97571.53;4980563;28;19924;-31
2021/10/14 09:51:38;;;;;;;10.30;3.58;;;;;;;25.57;32.52;97575.00;4991114;28;20112;-34
2021/10/14 09:54:04;;;;;;;8.80;3.53;;;;;;;25.57;32.66;97580.25;4992838;28;20074;-30
2021/10/14 09:56:30;;;;;;;9.10;3.45;;;;;;;25.60;32.70;97568.78;4988633;28;20042;-29
2021/10/14 09:58:57;;;;;;;10.10;3.20;;;;;;;25.63;32.59;97565.19;4990891;28;20035;-28
2021/10/14 10:01:23;;;;;;;10.20;3.70;;;;;;;25.64;32.69;97559.00;4987749;28;20025;-34
2021/10/14 10:03:49;;;;;;;10.00;3.45;;;;;;;25.65;32.73;97563.31;4992660;28;20241;-28
2021/10/14 10:06:14;;;;;;;10.27;3.92;;;;;;;25.68;32.94;97563.22;4979420;28;20026;-31
2021/10/14 10:08:41;;;;;;;6.07;3.00;;;;;;;25.70;32.78;97558.75;4989825;28;20030;-31
2021/10/14 10:11:13;;;;;;;10.07;3.35;;;;;;;25.70;32.86;97553.50;5002206;28;20042;-30
2021/10/14 10:13:53;;;;;;;4.88;2.67;;;;;;;25.74;33.00;97559.50;4976377;28;20678;-32
2021/10/14 10:16:22;;;;;;;10.00;3.22;;;;;;;25.75;32.97;97554.19;4995912;28;20042;-29
2021/10/14 10:18:48;;;;;;;5.50;2.95;;;;;;;25.72;32.98;97549.06;5010407;28;21135;-29
2021/10/14 10:21:32;;;;;;;6.45;2.95;;;;;;;25.76;33.02;97555.88;5009303;28;20032;-32
2021/10/14 10:24:01;;;;;;;6.00;2.78;;;;;;;25.77;33.00;97554.97;5008575;28;20376;-32
2021/10/14 10:26:32;;;;;;;6.47;2.80;;;;;;;25.78;33.06;97551.41;5009478;28;20110;-31
2021/10/14 10:28:58;;;;;;;6.28;2.95;;;;;;;25.79;33.03;97562.78;5010194;28;20083;-27
2021/10/14 10:31:23;;;;;;;6.30;2.80;;;;;;;25.80;33.15;97552.22;5003960;28;20980;-32
2021/10/14 10:33:52;;;;;;;10.32;3.10;;;;;;;25.80;33.07;97554.84;5007837;28;20562;-32
2021/10/14 10:36:46;;;;;;;7.07;3.05;;;;;;;25.81;33.11;97559.16;5002283;28;20532;-29
2021/10/14 10:39:40;;;;;;;6.47;2.90;;;;;;;25.83;33.32;97554.69;5007550;28;20037;-29
2021/10/14 10:42:27;;;;;;;4.63;2.40;;;;;;;25.80;33.14;97539.09;5005141;28;20060;-29
2021/10/14 10:44:52;;;;;;;6.03;2.70;;;;;;;25.85;33.23;97541.50;5007059;28;20131;-33
2021/10/14 10:47:42;;;;;;;5.63;2.65;;;;;;;25.86;33.34;97539.75;5005414;28;20106;-32
2021/10/14 10:50:13;;;;;;;5.63;2.70;;;;;;;25.87;33.36;97544.06;5002495;28;20026;-32
2021/10/14 10:52:40;;;;;;;5.63;2.42;;;;;;;25.87;33.34;97544.06;5006190;28;20057;-29
2021/10/14 10:55:21;;;;;;;9.57;2.67;;;;;;;25.89;33.32;97537.00;5011379;28;20025;-30
2021/10/14 10:57:50;;;;;;;4.47;2.50;;;;;;;25.90;33.32;97538.72;5003708;28;20026;-34
2021/10/14 11:00:17;;;;;;;5.50;2.65;;;;;;;25.90;33.43;97536.91;5000519;28;20029;-32
2021/10/14 11:02:42;;;;;;;12.65;2.20;;;;;;;25.91;32.99;97540.41;5003791;28;20857;-28
2021/10/14 11:05:08;;;;;;;4.53;2.47;;;;;;;25.90;32.80;97534.28;5015801;28;20117;-35
2021/10/14 11:07:33;;;;;;;6.20;2.40;;;;;;;25.90;32.59;97528.22;5012929;28;20021;-31
2021/10/14 11:09:59;;;;;;;12.48;2.63;;;;;;;25.89;32.77;97521.25;5012421;28;20033;-30
2021/10/14 11:12:24;;;;;;;5.03;2.38;;;;;;;25.87;32.93;97518.69;5014171;28;20038;-29
2021/10/14 11:14:50;;;;;;;7.15;2.40;;;;;;;25.87;32.95;97517.81;5027004;28;20021;-32
2021/10/14 11:17:16;;;;;;;4.60;2.40;;;;;;;25.86;33.08;97518.75;5011502;28;20164;-28
2021/10/14 11:19:42;;;;;;;11.00;2.70;;;;;;;25.85;33.15;97504.75;5015219;28;20021;-31
2021/10/14 11:22:18;;;;;;;5.97;2.50;;;;;;;25.83;33.25;97504.81;5011777;28;20033;-34
2021/10/14 11:24:47;;;;;;;9.85;2.95;;;;;;;25.84;33.40;97510.94;5006896;28;20132;-30
2021/10/14 11:27:13;;;;;;;19.20;3.45;;;;;;;25.83;33.55;97501.34;5009025;28;20314;-31
2021/10/14 11:29:39;;;;;;;14.43;3.20;;;;;;;25.83;33.54;97507.44;5010645;28;20554;-31